Aviation Digital Data Service (ADDS)

Output produced by METARs form (0230 UTC 20 September 2020)
found at http://www.aviationweather.gov/metar/data/
 
METAR text: RJFF 200200Z 33010KT 300V010 9999 FEW030 BKN/// 25/09 Q1016 NOSIG
Conditions at: RJFF (FUKUOKA/ITAZUKE , JP) observed 0200 UTC 20 September 2020
Temperature: 25.0°C (77°F)
Dewpoint: 9.0°C (48°F) [RH = 36%]
Pressure (altimeter): 30.00 inches Hg (1016.0 mb)
Winds: from the NNW (330 degrees) at 12 MPH (10 knots; 5.1 m/s)
Visibility: 6 or more miles (10+ km)
Ceiling: at least 12,000 feet AGL
Clouds: few clouds at 3000 feet AGL
Weather: no significant weather observed at this time

METAR text: RJFF 200130Z 33009KT 9999 FEW030 BKN/// 25/10 Q1016 NOSIG RMK 1CU030 A3002
Conditions at: RJFF (FUKUOKA/ITAZUKE , JP) observed 0130 UTC 20 September 2020
Temperature: 25.0°C (77°F)
Dewpoint: 10.0°C (50°F) [RH = 39%]
Pressure (altimeter): 30.00 inches Hg (1016.0 mb)
Winds: from the NNW (330 degrees) at 10 MPH (9 knots; 4.6 m/s)
Visibility: 6 or more miles (10+ km)
Ceiling: at least 12,000 feet AGL
Clouds: few clouds at 3000 feet AGL
Weather: no significant weather observed at this time

METAR text: RJFF 200100Z 34006KT 300V040 9999 FEW030 BKN/// 25/13 Q1016 NOSIG RMK 1CU030 A3002
Conditions at: RJFF (FUKUOKA/ITAZUKE , JP) observed 0100 UTC 20 September 2020
Temperature: 25.0°C (77°F)
Dewpoint: 13.0°C (55°F) [RH = 47%]
Pressure (altimeter): 30.00 inches Hg (1016.0 mb)
Winds: from the NNW (340 degrees) at 7 MPH (6 knots; 3.1 m/s)
Visibility: 6 or more miles (10+ km)
Ceiling: at least 12,000 feet AGL
Clouds: few clouds at 3000 feet AGL
Weather: no significant weather observed at this time

METAR text: RJFF 200030Z 31003KT 250V360 9999 FEW030 BKN/// 24/16 Q1016 NOSIG RMK 1CU030 A3002
Conditions at: RJFF (FUKUOKA/ITAZUKE , JP) observed 0030 UTC 20 September 2020
Temperature: 24.0°C (75°F)
Dewpoint: 16.0°C (61°F) [RH = 61%]
Pressure (altimeter): 30.00 inches Hg (1016.0 mb)
Winds: from the NW (310 degrees) at 3 MPH (3 knots; 1.5 m/s)
Visibility: 6 or more miles (10+ km)
Ceiling: at least 12,000 feet AGL
Clouds: few clouds at 3000 feet AGL
Weather: no significant weather observed at this time

METAR text: RJFF 200000Z VRB02KT 9999 FEW025 BKN/// 22/15 Q1016 BECMG 33011KT RMK 1CU025 A3002
Conditions at: RJFF (FUKUOKA/ITAZUKE , JP) observed 0000 UTC 20 September 2020
Temperature: 22.0°C (72°F)
Dewpoint: 15.0°C (59°F) [RH = 65%]
Pressure (altimeter): 30.00 inches Hg (1016.0 mb)
Winds: variable direction winds at 2 MPH (2 knots; 1.0 m/s)
Visibility: 6 or more miles (10+ km)
Ceiling: at least 12,000 feet AGL
Clouds: few clouds at 2500 feet AGL
Weather: no significant weather observed at this time

METAR text: RJFF 192330Z VRB02KT 9999 FEW025 SCT/// 21/15 Q1016 BECMG 34008KT
Conditions at: RJFF (FUKUOKA/ITAZUKE , JP) observed 2330 UTC 19 September 2020
Temperature: 21.0°C (70°F)
Dewpoint: 15.0°C (59°F) [RH = 69%]
Pressure (altimeter): 30.00 inches Hg (1016.0 mb)
Winds: variable direction winds at 2 MPH (2 knots; 1.0 m/s)
Visibility: 6 or more miles (10+ km)
Ceiling: at least 12,000 feet AGL
Clouds: few clouds at 2500 feet AGL
Weather: no significant weather observed at this time

METAR text: RJFF 192300Z VRB01KT 9999 FEW025 SCT/// 19/15 Q1016 BECMG FM0000 34010KT RMK 1CU025 A3001
Conditions at: RJFF (FUKUOKA/ITAZUKE , JP) observed 2300 UTC 19 September 2020
Temperature: 19.0°C (66°F)
Dewpoint: 15.0°C (59°F) [RH = 78%]
Pressure (altimeter): 30.00 inches Hg (1016.0 mb)
Winds: variable direction winds at 1 MPH (1 knots; 0.5 m/s)
Visibility: 6 or more miles (10+ km)
Ceiling: at least 12,000 feet AGL
Clouds: few clouds at 2500 feet AGL
Weather: no significant weather observed at this time

METAR text: RJFF 192230Z 15003KT 9999 FEW025 18/15 Q1016 BECMG FM0000 34009KT RMK 1CU025 A3000
Conditions at: RJFF (FUKUOKA/ITAZUKE , JP) observed 2230 UTC 19 September 2020
Temperature: 18.0°C (64°F)
Dewpoint: 15.0°C (59°F) [RH = 83%]
Pressure (altimeter): 30.00 inches Hg (1016.0 mb)
Winds: from the SSE (150 degrees) at 3 MPH (3 knots; 1.5 m/s)
Visibility: 6 or more miles (10+ km)
Ceiling: at least 12,000 feet AGL
Clouds: few clouds at 2500 feet AGL
Weather: no significant weather observed at this time

METAR text: RJFF 192200Z 14003KT 120V180 9999 FEW025 SCT035 17/15 Q1015 NOSIG RMK 1CU025 3CU035 A3000
Conditions at: RJFF (FUKUOKA/ITAZUKE , JP) observed 2200 UTC 19 September 2020
Temperature: 17.0°C (63°F)
Dewpoint: 15.0°C (59°F) [RH = 88%]
Pressure (altimeter): 29.97 inches Hg (1015.0 mb)
Winds: from the SE (140 degrees) at 3 MPH (3 knots; 1.5 m/s)
Visibility: 6 or more miles (10+ km)
Ceiling: at least 12,000 feet AGL
Clouds: few clouds at 2500 feet AGL
scattered clouds at 3500 feet AGL
Weather: no significant weather observed at this time

METAR text: RJFF 192130Z 12003KT 090V150 9999 FEW030 17/14 Q1015 NOSIG RMK 1CU030 A2999
Conditions at: RJFF (FUKUOKA/ITAZUKE , JP) observed 2130 UTC 19 September 2020
Temperature: 17.0°C (63°F)
Dewpoint: 14.0°C (57°F) [RH = 82%]
Pressure (altimeter): 29.97 inches Hg (1015.0 mb)
Winds: from the ESE (120 degrees) at 3 MPH (3 knots; 1.5 m/s)
Visibility: 6 or more miles (10+ km)
Ceiling: at least 12,000 feet AGL
Clouds: few clouds at 3000 feet AGL
Weather: no significant weather observed at this time

METAR text: RJFF 192100Z 13003KT 9999 FEW030 17/15 Q1015 NOSIG RMK 1CU030 A3000
Conditions at: RJFF (FUKUOKA/ITAZUKE , JP) observed 2100 UTC 19 September 2020
Temperature: 17.0°C (63°F)
Dewpoint: 15.0°C (59°F) [RH = 88%]
Pressure (altimeter): 29.97 inches Hg (1015.0 mb)
Winds: from the SE (130 degrees) at 3 MPH (3 knots; 1.5 m/s)
Visibility: 6 or more miles (10+ km)
Ceiling: at least 12,000 feet AGL
Clouds: few clouds at 3000 feet AGL
Weather: no significant weather observed at this time

METAR text: RJFF 192030Z AUTO 13004KT 9999 NCD 16/15 Q1015 NOSIG RMK A2998
Conditions at: RJFF (FUKUOKA/ITAZUKE , JP) observed 2030 UTC 19 September 2020
Temperature: 16.0°C (61°F)
Dewpoint: 15.0°C (59°F) [RH = 94%]
Pressure (altimeter): 29.97 inches Hg (1015.0 mb)
Winds: from the SE (130 degrees) at 5 MPH (4 knots; 2.1 m/s)
Visibility: 6 or more miles (10+ km)
Ceiling: at least 12,000 feet AGL
Clouds: sky clear below 12,000 feet AGL
Weather: no significant weather observed at this time

METAR text: RJFF 192000Z AUTO 11003KT 9999 NCD 17/15 Q1015 NOSIG RMK A2997
Conditions at: RJFF (FUKUOKA/ITAZUKE , JP) observed 2000 UTC 19 September 2020
Temperature: 17.0°C (63°F)
Dewpoint: 15.0°C (59°F) [RH = 88%]
Pressure (altimeter): 29.97 inches Hg (1015.0 mb)
Winds: from the ESE (110 degrees) at 3 MPH (3 knots; 1.5 m/s)
Visibility: 6 or more miles (10+ km)
Ceiling: at least 12,000 feet AGL
Clouds: sky clear below 12,000 feet AGL
Weather: no significant weather observed at this time

METAR text: RJFF 191930Z AUTO VRB02KT 9999 NSC 17/15 Q1015 NOSIG RMK A2997
Conditions at: RJFF (FUKUOKA/ITAZUKE , JP) observed 1930 UTC 19 September 2020
Temperature: 17.0°C (63°F)
Dewpoint: 15.0°C (59°F) [RH = 88%]
Pressure (altimeter): 29.97 inches Hg (1015.0 mb)
Winds: variable direction winds at 2 MPH (2 knots; 1.0 m/s)
Visibility: 6 or more miles (10+ km)
Ceiling: at least 12,000 feet AGL
Clouds: sky clear below 12,000 feet AGL
Weather: no significant weather observed at this time

METAR text: RJFF 191900Z AUTO 12003KT 9999 NSC 17/15 Q1014 NOSIG
Conditions at: RJFF (FUKUOKA/ITAZUKE , JP) observed 1900 UTC 19 September 2020
Temperature: 17.0°C (63°F)
Dewpoint: 15.0°C (59°F) [RH = 88%]
Pressure (altimeter): 29.94 inches Hg (1014.0 mb)
Winds: from the ESE (120 degrees) at 3 MPH (3 knots; 1.5 m/s)
Visibility: 6 or more miles (10+ km)
Ceiling: at least 12,000 feet AGL
Clouds: sky clear below 12,000 feet AGL
Weather: no significant weather observed at this time

METAR text: RJFF 191830Z AUTO 11003KT 9999 NCD 18/15 Q1015 NOSIG RMK A2998
Conditions at: RJFF (FUKUOKA/ITAZUKE , JP) observed 1830 UTC 19 September 2020
Temperature: 18.0°C (64°F)
Dewpoint: 15.0°C (59°F) [RH = 83%]
Pressure (altimeter): 29.97 inches Hg (1015.0 mb)
Winds: from the ESE (110 degrees) at 3 MPH (3 knots; 1.5 m/s)
Visibility: 6 or more miles (10+ km)
Ceiling: at least 12,000 feet AGL
Clouds: sky clear below 12,000 feet AGL
Weather: no significant weather observed at this time

METAR text: RJFF 191800Z AUTO 14003KT 9999 NSC 18/15 Q1015 NOSIG RMK A2998
Conditions at: RJFF (FUKUOKA/ITAZUKE , JP) observed 1800 UTC 19 September 2020
Temperature: 18.0°C (64°F)
Dewpoint: 15.0°C (59°F) [RH = 83%]
Pressure (altimeter): 29.97 inches Hg (1015.0 mb)
Winds: from the SE (140 degrees) at 3 MPH (3 knots; 1.5 m/s)
Visibility: 6 or more miles (10+ km)
Ceiling: at least 12,000 feet AGL
Clouds: sky clear below 12,000 feet AGL
Weather: no significant weather observed at this time

METAR text: RJFF 191730Z AUTO 11003KT 9999 NSC 19/15 Q1015 NOSIG RMK A2999
Conditions at: RJFF (FUKUOKA/ITAZUKE , JP) observed 1730 UTC 19 September 2020
Temperature: 19.0°C (66°F)
Dewpoint: 15.0°C (59°F) [RH = 78%]
Pressure (altimeter): 29.97 inches Hg (1015.0 mb)
Winds: from the ESE (110 degrees) at 3 MPH (3 knots; 1.5 m/s)
Visibility: 6 or more miles (10+ km)
Ceiling: at least 12,000 feet AGL
Clouds: sky clear below 12,000 feet AGL
Weather: no significant weather observed at this time

METAR text: RJFF 191700Z AUTO 12002KT 9999 NSC 19/16 Q1015 NOSIG RMK A2999
Conditions at: RJFF (FUKUOKA/ITAZUKE , JP) observed 1700 UTC 19 September 2020
Temperature: 19.0°C (66°F)
Dewpoint: 16.0°C (61°F) [RH = 83%]
Pressure (altimeter): 29.97 inches Hg (1015.0 mb)
Winds: from the ESE (120 degrees) at 2 MPH (2 knots; 1.0 m/s)
Visibility: 6 or more miles (10+ km)
Ceiling: at least 12,000 feet AGL
Clouds: sky clear below 12,000 feet AGL
Weather: no significant weather observed at this time

METAR text: RJFF 191630Z AUTO 14003KT 9999 NSC 19/15 Q1015 NOSIG RMK A2999
Conditions at: RJFF (FUKUOKA/ITAZUKE , JP) observed 1630 UTC 19 September 2020
Temperature: 19.0°C (66°F)
Dewpoint: 15.0°C (59°F) [RH = 78%]
Pressure (altimeter): 29.97 inches Hg (1015.0 mb)
Winds: from the SE (140 degrees) at 3 MPH (3 knots; 1.5 m/s)
Visibility: 6 or more miles (10+ km)
Ceiling: at least 12,000 feet AGL
Clouds: sky clear below 12,000 feet AGL
Weather: no significant weather observed at this time

METAR text: RJFF 191600Z AUTO 14002KT 9999 NSC 19/15 Q1015 NOSIG RMK A2999
Conditions at: RJFF (FUKUOKA/ITAZUKE , JP) observed 1600 UTC 19 September 2020
Temperature: 19.0°C (66°F)
Dewpoint: 15.0°C (59°F) [RH = 78%]
Pressure (altimeter): 29.97 inches Hg (1015.0 mb)
Winds: from the SE (140 degrees) at 2 MPH (2 knots; 1.0 m/s)
Visibility: 6 or more miles (10+ km)
Ceiling: at least 12,000 feet AGL
Clouds: sky clear below 12,000 feet AGL
Weather: no significant weather observed at this time

METAR text: RJFF 191530Z AUTO 10003KT 9999 NSC 19/15 Q1015 NOSIG RMK A2999
Conditions at: RJFF (FUKUOKA/ITAZUKE , JP) observed 1530 UTC 19 September 2020
Temperature: 19.0°C (66°F)
Dewpoint: 15.0°C (59°F) [RH = 78%]
Pressure (altimeter): 29.97 inches Hg (1015.0 mb)
Winds: from the E (100 degrees) at 3 MPH (3 knots; 1.5 m/s)
Visibility: 6 or more miles (10+ km)
Ceiling: at least 12,000 feet AGL
Clouds: sky clear below 12,000 feet AGL
Weather: no significant weather observed at this time

METAR text: RJFF 191500Z AUTO VRB02KT 9999 NSC 19/15 Q1016 NOSIG RMK A3000
Conditions at: RJFF (FUKUOKA/ITAZUKE , JP) observed 1500 UTC 19 September 2020
Temperature: 19.0°C (66°F)
Dewpoint: 15.0°C (59°F) [RH = 78%]
Pressure (altimeter): 30.00 inches Hg (1016.0 mb)
Winds: variable direction winds at 2 MPH (2 knots; 1.0 m/s)
Visibility: 6 or more miles (10+ km)
Ceiling: at least 12,000 feet AGL
Clouds: sky clear below 12,000 feet AGL
Weather: no significant weather observed at this time

METAR text: RJFF 191430Z AUTO 09003KT 9999 NSC 19/15 Q1016 NOSIG RMK A3001
Conditions at: RJFF (FUKUOKA/ITAZUKE , JP) observed 1430 UTC 19 September 2020
Temperature: 19.0°C (66°F)
Dewpoint: 15.0°C (59°F) [RH = 78%]
Pressure (altimeter): 30.00 inches Hg (1016.0 mb)
Winds: from the E (90 degrees) at 3 MPH (3 knots; 1.5 m/s)
Visibility: 6 or more miles (10+ km)
Ceiling: at least 12,000 feet AGL
Clouds: sky clear below 12,000 feet AGL
Weather: no significant weather observed at this time

METAR text: RJFF 191400Z AUTO 08002KT 9999 NSC 20/14 Q1016 NOSIG RMK A3001
Conditions at: RJFF (FUKUOKA/ITAZUKE , JP) observed 1400 UTC 19 September 2020
Temperature: 20.0°C (68°F)
Dewpoint: 14.0°C (57°F) [RH = 68%]
Pressure (altimeter): 30.00 inches Hg (1016.0 mb)
Winds: from the E (80 degrees) at 2 MPH (2 knots; 1.0 m/s)
Visibility: 6 or more miles (10+ km)
Ceiling: at least 12,000 feet AGL
Clouds: sky clear below 12,000 feet AGL
Weather: no significant weather observed at this time

METAR text: RJFF 191330Z 09004KT CAVOK 20/15 Q1016 NOSIG RMK A3001
Conditions at: RJFF (FUKUOKA/ITAZUKE , JP) observed 1330 UTC 19 September 2020
Temperature: 20.0°C (68°F)
Dewpoint: 15.0°C (59°F) [RH = 73%]
Pressure (altimeter): 30.00 inches Hg (1016.0 mb)
Winds: from the E (90 degrees) at 5 MPH (4 knots; 2.1 m/s)
Visibility: 6 or more miles (10+ km)
Ceiling: ceiling and visibility are OK
Clouds: unknown
Weather: no significant weather observed at this time

METAR text: RJFF 191300Z VRB02KT CAVOK 20/15 Q1016 NOSIG RMK A3002
Conditions at: RJFF (FUKUOKA/ITAZUKE , JP) observed 1300 UTC 19 September 2020
Temperature: 20.0°C (68°F)
Dewpoint: 15.0°C (59°F) [RH = 73%]
Pressure (altimeter): 30.00 inches Hg (1016.0 mb)
Winds: variable direction winds at 2 MPH (2 knots; 1.0 m/s)
Visibility: 6 or more miles (10+ km)
Ceiling: ceiling and visibility are OK
Clouds: unknown
Weather: no significant weather observed at this time

METAR text: RJFF 191230Z 05003KT CAVOK 20/14 Q1016 NOSIG RMK A3001
Conditions at: RJFF (FUKUOKA/ITAZUKE , JP) observed 1230 UTC 19 September 2020
Temperature: 20.0°C (68°F)
Dewpoint: 14.0°C (57°F) [RH = 68%]
Pressure (altimeter): 30.00 inches Hg (1016.0 mb)
Winds: from the NE (50 degrees) at 3 MPH (3 knots; 1.5 m/s)
Visibility: 6 or more miles (10+ km)
Ceiling: ceiling and visibility are OK
Clouds: unknown
Weather: no significant weather observed at this time

METAR text: RJFF 191200Z 07003KT CAVOK 20/15 Q1016 NOSIG RMK A3002
Conditions at: RJFF (FUKUOKA/ITAZUKE , JP) observed 1200 UTC 19 September 2020
Temperature: 20.0°C (68°F)
Dewpoint: 15.0°C (59°F) [RH = 73%]
Pressure (altimeter): 30.00 inches Hg (1016.0 mb)
Winds: from the ENE (70 degrees) at 3 MPH (3 knots; 1.5 m/s)
Visibility: 6 or more miles (10+ km)
Ceiling: ceiling and visibility are OK
Clouds: unknown
Weather: no significant weather observed at this time

METAR text: RJFF 191130Z VRB01KT CAVOK 21/15 Q1016 NOSIG RMK A3001
Conditions at: RJFF (FUKUOKA/ITAZUKE , JP) observed 1130 UTC 19 September 2020
Temperature: 21.0°C (70°F)
Dewpoint: 15.0°C (59°F) [RH = 69%]
Pressure (altimeter): 30.00 inches Hg (1016.0 mb)
Winds: variable direction winds at 1 MPH (1 knots; 0.5 m/s)
Visibility: 6 or more miles (10+ km)
Ceiling: ceiling and visibility are OK
Clouds: unknown
Weather: no significant weather observed at this time

METAR text: RJFF 191100Z 03003KT 340V110 CAVOK 21/14 Q1015 BECMG FM1200 13005KT
Conditions at: RJFF (FUKUOKA/ITAZUKE , JP) observed 1100 UTC 19 September 2020
Temperature: 21.0°C (70°F)
Dewpoint: 14.0°C (57°F) [RH = 64%]
Pressure (altimeter): 29.97 inches Hg (1015.0 mb)
Winds: from the NNE (30 degrees) at 3 MPH (3 knots; 1.5 m/s)
Visibility: 6 or more miles (10+ km)
Ceiling: ceiling and visibility are OK
Clouds: unknown
Weather: no significant weather observed at this time

METAR text: RJFF 191030Z 05004KT CAVOK 22/14 Q1015 BECMG FM1200 13005KT RMK A2998
Conditions at: RJFF (FUKUOKA/ITAZUKE , JP) observed 1030 UTC 19 September 2020
Temperature: 22.0°C (72°F)
Dewpoint: 14.0°C (57°F) [RH = 60%]
Pressure (altimeter): 29.97 inches Hg (1015.0 mb)
Winds: from the NE (50 degrees) at 5 MPH (4 knots; 2.1 m/s)
Visibility: 6 or more miles (10+ km)
Ceiling: ceiling and visibility are OK
Clouds: unknown
Weather: no significant weather observed at this time

METAR text: RJFF 191000Z 05005KT CAVOK 22/14 Q1015 NOSIG RMK A2998
Conditions at: RJFF (FUKUOKA/ITAZUKE , JP) observed 1000 UTC 19 September 2020
Temperature: 22.0°C (72°F)
Dewpoint: 14.0°C (57°F) [RH = 60%]
Pressure (altimeter): 29.97 inches Hg (1015.0 mb)
Winds: from the NE (50 degrees) at 6 MPH (5 knots; 2.6 m/s)
Visibility: 6 or more miles (10+ km)
Ceiling: ceiling and visibility are OK
Clouds: unknown
Weather: no significant weather observed at this time

METAR text: RJFF 190930Z 05004KT CAVOK 23/14 Q1015 NOSIG RMK A2998
Conditions at: RJFF (FUKUOKA/ITAZUKE , JP) observed 0930 UTC 19 September 2020
Temperature: 23.0°C (73°F)
Dewpoint: 14.0°C (57°F) [RH = 57%]
Pressure (altimeter): 29.97 inches Hg (1015.0 mb)
Winds: from the NE (50 degrees) at 5 MPH (4 knots; 2.1 m/s)
Visibility: 6 or more miles (10+ km)
Ceiling: ceiling and visibility are OK
Clouds: unknown
Weather: no significant weather observed at this time

METAR text: RJFF 190900Z 04005KT 360V070 CAVOK 23/14 Q1015 NOSIG RMK A2999
Conditions at: RJFF (FUKUOKA/ITAZUKE , JP) observed 0900 UTC 19 September 2020
Temperature: 23.0°C (73°F)
Dewpoint: 14.0°C (57°F) [RH = 57%]
Pressure (altimeter): 29.97 inches Hg (1015.0 mb)
Winds: from the NE (40 degrees) at 6 MPH (5 knots; 2.6 m/s)
Visibility: 6 or more miles (10+ km)
Ceiling: ceiling and visibility are OK
Clouds: unknown
Weather: no significant weather observed at this time

METAR text: RJFF 190830Z 36004KT 320V040 CAVOK 24/12 Q1015 NOSIG RMK A2999
Conditions at: RJFF (FUKUOKA/ITAZUKE , JP) observed 0830 UTC 19 September 2020
Temperature: 24.0°C (75°F)
Dewpoint: 12.0°C (54°F) [RH = 47%]
Pressure (altimeter): 29.97 inches Hg (1015.0 mb)
Winds: from the N (360 degrees) at 5 MPH (4 knots; 2.1 m/s)
Visibility: 6 or more miles (10+ km)
Ceiling: ceiling and visibility are OK
Clouds: unknown
Weather: no significant weather observed at this time

METAR text: RJFF 190800Z 32005KT 230V030 CAVOK 24/12 Q1015 NOSIG RMK A2999
Conditions at: RJFF (FUKUOKA/ITAZUKE , JP) observed 0800 UTC 19 September 2020
Temperature: 24.0°C (75°F)
Dewpoint: 12.0°C (54°F) [RH = 47%]
Pressure (altimeter): 29.97 inches Hg (1015.0 mb)
Winds: from the NW (320 degrees) at 6 MPH (5 knots; 2.6 m/s)
Visibility: 6 or more miles (10+ km)
Ceiling: ceiling and visibility are OK
Clouds: unknown
Weather: no significant weather observed at this time

METAR text: RJFF 190730Z 34005KT 300V010 CAVOK 25/12 Q1015 NOSIG RMK A2999
Conditions at: RJFF (FUKUOKA/ITAZUKE , JP) observed 0730 UTC 19 September 2020
Temperature: 25.0°C (77°F)
Dewpoint: 12.0°C (54°F) [RH = 44%]
Pressure (altimeter): 29.97 inches Hg (1015.0 mb)
Winds: from the NNW (340 degrees) at 6 MPH (5 knots; 2.6 m/s)
Visibility: 6 or more miles (10+ km)
Ceiling: ceiling and visibility are OK
Clouds: unknown
Weather: no significant weather observed at this time

METAR text: RJFF 190700Z 34006KT 9999 FEW040 BKN/// 25/12 Q1015 NOSIG RMK 1CU040 A2998
Conditions at: RJFF (FUKUOKA/ITAZUKE , JP) observed 0700 UTC 19 September 2020
Temperature: 25.0°C (77°F)
Dewpoint: 12.0°C (54°F) [RH = 44%]
Pressure (altimeter): 29.97 inches Hg (1015.0 mb)
Winds: from the NNW (340 degrees) at 7 MPH (6 knots; 3.1 m/s)
Visibility: 6 or more miles (10+ km)
Ceiling: at least 12,000 feet AGL
Clouds: few clouds at 4000 feet AGL
Weather: no significant weather observed at this time

METAR text: RJFF 190630Z 35007KT 9999 FEW040 BKN/// 25/12 Q1015 NOSIG
Conditions at: RJFF (FUKUOKA/ITAZUKE , JP) observed 0630 UTC 19 September 2020
Temperature: 25.0°C (77°F)
Dewpoint: 12.0°C (54°F) [RH = 44%]
Pressure (altimeter): 29.97 inches Hg (1015.0 mb)
Winds: from the N (350 degrees) at 8 MPH (7 knots; 3.6 m/s)
Visibility: 6 or more miles (10+ km)
Ceiling: at least 12,000 feet AGL
Clouds: few clouds at 4000 feet AGL
Weather: no significant weather observed at this time

METAR text: RJFF 190600Z 32010KT 9999 FEW040 BKN/// 26/11 Q1015 NOSIG
Conditions at: RJFF (FUKUOKA/ITAZUKE , JP) observed 0600 UTC 19 September 2020
Temperature: 26.0°C (79°F)
Dewpoint: 11.0°C (52°F) [RH = 39%]
Pressure (altimeter): 29.97 inches Hg (1015.0 mb)
Winds: from the NW (320 degrees) at 12 MPH (10 knots; 5.1 m/s)
Visibility: 6 or more miles (10+ km)
Ceiling: at least 12,000 feet AGL
Clouds: few clouds at 4000 feet AGL
Weather: no significant weather observed at this time

METAR text: RJFF 190530Z VRB06KT 9999 FEW040 BKN/// 26/10 Q1015 BECMG 33011KT
Conditions at: RJFF (FUKUOKA/ITAZUKE , JP) observed 0530 UTC 19 September 2020
Temperature: 26.0°C (79°F)
Dewpoint: 10.0°C (50°F) [RH = 37%]
Pressure (altimeter): 29.97 inches Hg (1015.0 mb)
Winds: variable direction winds at 7 MPH (6 knots; 3.1 m/s)
Visibility: 6 or more miles (10+ km)
Ceiling: at least 12,000 feet AGL
Clouds: few clouds at 4000 feet AGL
Weather: no significant weather observed at this time

METAR text: RJFF 190500Z 33008KT 300V030 9999 FEW040 BKN/// 26/14 Q1015 NOSIG RMK 1CU040 A2999
Conditions at: RJFF (FUKUOKA/ITAZUKE , JP) observed 0500 UTC 19 September 2020
Temperature: 26.0°C (79°F)
Dewpoint: 14.0°C (57°F) [RH = 48%]
Pressure (altimeter): 29.97 inches Hg (1015.0 mb)
Winds: from the NNW (330 degrees) at 9 MPH (8 knots; 4.1 m/s)
Visibility: 6 or more miles (10+ km)
Ceiling: at least 12,000 feet AGL
Clouds: few clouds at 4000 feet AGL
Weather: no significant weather observed at this time

METAR text: RJFF 190430Z 32011KT 9999 FEW040 BKN/// 25/14 Q1015 NOSIG
Conditions at: RJFF (FUKUOKA/ITAZUKE , JP) observed 0430 UTC 19 September 2020
Temperature: 25.0°C (77°F)
Dewpoint: 14.0°C (57°F) [RH = 50%]
Pressure (altimeter): 29.97 inches Hg (1015.0 mb)
Winds: from the NW (320 degrees) at 13 MPH (11 knots; 5.7 m/s)
Visibility: 6 or more miles (10+ km)
Ceiling: at least 12,000 feet AGL
Clouds: few clouds at 4000 feet AGL
Weather: no significant weather observed at this time

METAR text: RJFF 190400Z 33010KT 9999 FEW040 BKN/// 26/13 Q1015 NOSIG
Conditions at: RJFF (FUKUOKA/ITAZUKE , JP) observed 0400 UTC 19 September 2020
Temperature: 26.0°C (79°F)
Dewpoint: 13.0°C (55°F) [RH = 45%]
Pressure (altimeter): 29.97 inches Hg (1015.0 mb)
Winds: from the NNW (330 degrees) at 12 MPH (10 knots; 5.1 m/s)
Visibility: 6 or more miles (10+ km)
Ceiling: at least 12,000 feet AGL
Clouds: few clouds at 4000 feet AGL
Weather: no significant weather observed at this time

METAR text: RJFF 190330Z 33008KT 9999 FEW040 BKN/// 26/14 Q1016 NOSIG
Conditions at: RJFF (FUKUOKA/ITAZUKE , JP) observed 0330 UTC 19 September 2020
Temperature: 26.0°C (79°F)
Dewpoint: 14.0°C (57°F) [RH = 48%]
Pressure (altimeter): 30.00 inches Hg (1016.0 mb)
Winds: from the NNW (330 degrees) at 9 MPH (8 knots; 4.1 m/s)
Visibility: 6 or more miles (10+ km)
Ceiling: at least 12,000 feet AGL
Clouds: few clouds at 4000 feet AGL
Weather: no significant weather observed at this time

METAR text: RJFF 190300Z 32006KT 250V030 9999 FEW035 BKN/// 26/13 Q1016 NOSIG
Conditions at: RJFF (FUKUOKA/ITAZUKE , JP) observed 0300 UTC 19 September 2020
Temperature: 26.0°C (79°F)
Dewpoint: 13.0°C (55°F) [RH = 45%]
Pressure (altimeter): 30.00 inches Hg (1016.0 mb)
Winds: from the NW (320 degrees) at 7 MPH (6 knots; 3.1 m/s)
Visibility: 6 or more miles (10+ km)
Ceiling: at least 12,000 feet AGL
Clouds: few clouds at 3500 feet AGL
Weather: no significant weather observed at this time

METAR text: RJFF 190230Z 35005KT 290V040 9999 FEW030 BKN/// 25/14 Q1016 NOSIG RMK 1CU030 A3002
Conditions at: RJFF (FUKUOKA/ITAZUKE , JP) observed 0230 UTC 19 September 2020
Temperature: 25.0°C (77°F)
Dewpoint: 14.0°C (57°F) [RH = 50%]
Pressure (altimeter): 30.00 inches Hg (1016.0 mb)
Winds: from the N (350 degrees) at 6 MPH (5 knots; 2.6 m/s)
Visibility: 6 or more miles (10+ km)
Ceiling: at least 12,000 feet AGL
Clouds: few clouds at 3000 feet AGL
Weather: no significant weather observed at this time

METAR text: RJFF 190200Z 32006KT 280V360 9999 FEW030 BKN/// 25/15 Q1016 NOSIG
Conditions at: RJFF (FUKUOKA/ITAZUKE , JP) observed 0200 UTC 19 September 2020
Temperature: 25.0°C (77°F)
Dewpoint: 15.0°C (59°F) [RH = 54%]
Pressure (altimeter): 30.00 inches Hg (1016.0 mb)
Winds: from the NW (320 degrees) at 7 MPH (6 knots; 3.1 m/s)
Visibility: 6 or more miles (10+ km)
Ceiling: at least 12,000 feet AGL
Clouds: few clouds at 3000 feet AGL
Weather: no significant weather observed at this time

METAR text: RJFF 190130Z VRB04KT 9999 FEW025 BKN/// 24/16 Q1017 BECMG 33007KT
Conditions at: RJFF (FUKUOKA/ITAZUKE , JP) observed 0130 UTC 19 September 2020
Temperature: 24.0°C (75°F)
Dewpoint: 16.0°C (61°F) [RH = 61%]
Pressure (altimeter): 30.03 inches Hg (1017.0 mb)
Winds: variable direction winds at 5 MPH (4 knots; 2.1 m/s)
Visibility: 6 or more miles (10+ km)
Ceiling: at least 12,000 feet AGL
Clouds: few clouds at 2500 feet AGL
Weather: no significant weather observed at this time

METAR text: RJFF 190100Z VRB01KT 9999 FEW025 BKN/// 24/18 Q1017 BECMG 33007KT
Conditions at: RJFF (FUKUOKA/ITAZUKE , JP) observed 0100 UTC 19 September 2020
Temperature: 24.0°C (75°F)
Dewpoint: 18.0°C (64°F) [RH = 69%]
Pressure (altimeter): 30.03 inches Hg (1017.0 mb)
Winds: variable direction winds at 1 MPH (1 knots; 0.5 m/s)
Visibility: 6 or more miles (10+ km)
Ceiling: at least 12,000 feet AGL
Clouds: few clouds at 2500 feet AGL
Weather: no significant weather observed at this time

METAR text: RJFF 190030Z VRB02KT 9999 FEW020 BKN/// 23/18 Q1017 BECMG FM0100 33007KT
Conditions at: RJFF (FUKUOKA/ITAZUKE , JP) observed 0030 UTC 19 September 2020
Temperature: 23.0°C (73°F)
Dewpoint: 18.0°C (64°F) [RH = 73%]
Pressure (altimeter): 30.03 inches Hg (1017.0 mb)
Winds: variable direction winds at 2 MPH (2 knots; 1.0 m/s)
Visibility: 6 or more miles (10+ km)
Ceiling: at least 12,000 feet AGL
Clouds: few clouds at 2000 feet AGL
Weather: no significant weather observed at this time

METAR text: RJFF 190000Z 16003KT 110V220 9999 FEW020 BKN/// 22/18 Q1016 BECMG 34006KT
Conditions at: RJFF (FUKUOKA/ITAZUKE , JP) observed 0000 UTC 19 September 2020
Temperature: 22.0°C (72°F)
Dewpoint: 18.0°C (64°F) [RH = 78%]
Pressure (altimeter): 30.00 inches Hg (1016.0 mb)
Winds: from the SSE (160 degrees) at 3 MPH (3 knots; 1.5 m/s)
Visibility: 6 or more miles (10+ km)
Ceiling: at least 12,000 feet AGL
Clouds: few clouds at 2000 feet AGL
Weather: no significant weather observed at this time

METAR text: RJFF 182330Z 17005KT 140V210 9999 FEW020 BKN/// 22/19 Q1016 BECMG 34006KT
Conditions at: RJFF (FUKUOKA/ITAZUKE , JP) observed 2330 UTC 18 September 2020
Temperature: 22.0°C (72°F)
Dewpoint: 19.0°C (66°F) [RH = 83%]
Pressure (altimeter): 30.00 inches Hg (1016.0 mb)
Winds: from the S (170 degrees) at 6 MPH (5 knots; 2.6 m/s)
Visibility: 6 or more miles (10+ km)
Ceiling: at least 12,000 feet AGL
Clouds: few clouds at 2000 feet AGL
Weather: no significant weather observed at this time

METAR text: RJFF 182300Z 15004KT 9999 FEW020 SCT/// 20/18 Q1017 BECMG 34006KT
Conditions at: RJFF (FUKUOKA/ITAZUKE , JP) observed 2300 UTC 18 September 2020
Temperature: 20.0°C (68°F)
Dewpoint: 18.0°C (64°F) [RH = 88%]
Pressure (altimeter): 30.03 inches Hg (1017.0 mb)
Winds: from the SSE (150 degrees) at 5 MPH (4 knots; 2.1 m/s)
Visibility: 6 or more miles (10+ km)
Ceiling: at least 12,000 feet AGL
Clouds: few clouds at 2000 feet AGL
Weather: no significant weather observed at this time

METAR text: RJFF 182230Z 15003KT 120V180 9999 FEW020 BKN/// 19/18 Q1016 NOSIG
Conditions at: RJFF (FUKUOKA/ITAZUKE , JP) observed 2230 UTC 18 September 2020
Temperature: 19.0°C (66°F)
Dewpoint: 18.0°C (64°F) [RH = 94%]
Pressure (altimeter): 30.00 inches Hg (1016.0 mb)
Winds: from the SSE (150 degrees) at 3 MPH (3 knots; 1.5 m/s)
Visibility: 6 or more miles (10+ km)
Ceiling: at least 12,000 feet AGL
Clouds: few clouds at 2000 feet AGL
Weather: no significant weather observed at this time

METAR text: RJFF 182200Z VRB02KT 9999 FEW020 BKN/// 18/17 Q1016 NOSIG
Conditions at: RJFF (FUKUOKA/ITAZUKE , JP) observed 2200 UTC 18 September 2020
Temperature: 18.0°C (64°F)
Dewpoint: 17.0°C (63°F) [RH = 94%]
Pressure (altimeter): 30.00 inches Hg (1016.0 mb)
Winds: variable direction winds at 2 MPH (2 knots; 1.0 m/s)
Visibility: 6 or more miles (10+ km)
Ceiling: at least 12,000 feet AGL
Clouds: few clouds at 2000 feet AGL
Weather: no significant weather observed at this time

METAR text: RJFF 182130Z 17002KT 9999 FEW015 BKN/// 17/17 Q1016 NOSIG
Conditions at: RJFF (FUKUOKA/ITAZUKE , JP) observed 2130 UTC 18 September 2020
Temperature: 17.0°C (63°F)
Dewpoint: 17.0°C (63°F) [RH = 100%]
Pressure (altimeter): 30.00 inches Hg (1016.0 mb)
Winds: from the S (170 degrees) at 2 MPH (2 knots; 1.0 m/s)
Visibility: 6 or more miles (10+ km)
Ceiling: at least 12,000 feet AGL
Clouds: few clouds at 1500 feet AGL
Weather: no significant weather observed at this time

METAR text: RJFF 182100Z 08001KT 9999 FEW015 17/17 Q1016 NOSIG RMK 1CU015 A3001
Conditions at: RJFF (FUKUOKA/ITAZUKE , JP) observed 2100 UTC 18 September 2020
Temperature: 17.0°C (63°F)
Dewpoint: 17.0°C (63°F) [RH = 100%]
Pressure (altimeter): 30.00 inches Hg (1016.0 mb)
Winds: from the E (80 degrees) at 1 MPH (1 knots; 0.5 m/s)
Visibility: 6 or more miles (10+ km)
Ceiling: at least 12,000 feet AGL
Clouds: few clouds at 1500 feet AGL
Weather: no significant weather observed at this time

METAR text: RJFF 182030Z AUTO VRB02KT 9999 NCD 17/17 Q1016 NOSIG RMK A3001
Conditions at: RJFF (FUKUOKA/ITAZUKE , JP) observed 2030 UTC 18 September 2020
Temperature: 17.0°C (63°F)
Dewpoint: 17.0°C (63°F) [RH = 100%]
Pressure (altimeter): 30.00 inches Hg (1016.0 mb)
Winds: variable direction winds at 2 MPH (2 knots; 1.0 m/s)
Visibility: 6 or more miles (10+ km)
Ceiling: at least 12,000 feet AGL
Clouds: sky clear below 12,000 feet AGL
Weather: no significant weather observed at this time

METAR text: RJFF 182000Z AUTO 16004KT 9999 NCD 17/17 Q1016 NOSIG RMK A3000
Conditions at: RJFF (FUKUOKA/ITAZUKE , JP) observed 2000 UTC 18 September 2020
Temperature: 17.0°C (63°F)
Dewpoint: 17.0°C (63°F) [RH = 100%]
Pressure (altimeter): 30.00 inches Hg (1016.0 mb)
Winds: from the SSE (160 degrees) at 5 MPH (4 knots; 2.1 m/s)
Visibility: 6 or more miles (10+ km)
Ceiling: at least 12,000 feet AGL
Clouds: sky clear below 12,000 feet AGL
Weather: no significant weather observed at this time

METAR text: RJFF 181930Z AUTO 14002KT 9999 NCD 18/17 Q1016 NOSIG RMK A3000
Conditions at: RJFF (FUKUOKA/ITAZUKE , JP) observed 1930 UTC 18 September 2020
Temperature: 18.0°C (64°F)
Dewpoint: 17.0°C (63°F) [RH = 94%]
Pressure (altimeter): 30.00 inches Hg (1016.0 mb)
Winds: from the SE (140 degrees) at 2 MPH (2 knots; 1.0 m/s)
Visibility: 6 or more miles (10+ km)
Ceiling: at least 12,000 feet AGL
Clouds: sky clear below 12,000 feet AGL
Weather: no significant weather observed at this time

METAR text: RJFF 181900Z AUTO VRB01KT 9999 NCD 18/17 Q1015 NOSIG RMK A3000
Conditions at: RJFF (FUKUOKA/ITAZUKE , JP) observed 1900 UTC 18 September 2020
Temperature: 18.0°C (64°F)
Dewpoint: 17.0°C (63°F) [RH = 94%]
Pressure (altimeter): 29.97 inches Hg (1015.0 mb)
Winds: variable direction winds at 1 MPH (1 knots; 0.5 m/s)
Visibility: 6 or more miles (10+ km)
Ceiling: at least 12,000 feet AGL
Clouds: sky clear below 12,000 feet AGL
Weather: no significant weather observed at this time

METAR text: RJFF 181830Z AUTO 13003KT 9999 NCD 18/17 Q1016 NOSIG RMK A3000
Conditions at: RJFF (FUKUOKA/ITAZUKE , JP) observed 1830 UTC 18 September 2020
Temperature: 18.0°C (64°F)
Dewpoint: 17.0°C (63°F) [RH = 94%]
Pressure (altimeter): 30.00 inches Hg (1016.0 mb)
Winds: from the SE (130 degrees) at 3 MPH (3 knots; 1.5 m/s)
Visibility: 6 or more miles (10+ km)
Ceiling: at least 12,000 feet AGL
Clouds: sky clear below 12,000 feet AGL
Weather: no significant weather observed at this time

METAR text: RJFF 181800Z AUTO 09002KT 9999 NCD 18/17 Q1016 NOSIG RMK A3000
Conditions at: RJFF (FUKUOKA/ITAZUKE , JP) observed 1800 UTC 18 September 2020
Temperature: 18.0°C (64°F)
Dewpoint: 17.0°C (63°F) [RH = 94%]
Pressure (altimeter): 30.00 inches Hg (1016.0 mb)
Winds: from the E (90 degrees) at 2 MPH (2 knots; 1.0 m/s)
Visibility: 6 or more miles (10+ km)
Ceiling: at least 12,000 feet AGL
Clouds: sky clear below 12,000 feet AGL
Weather: no significant weather observed at this time

METAR text: RJFF 181730Z AUTO 14001KT 9999 NCD 18/18 Q1016 NOSIG RMK A3001
Conditions at: RJFF (FUKUOKA/ITAZUKE , JP) observed 1730 UTC 18 September 2020
Temperature: 18.0°C (64°F)
Dewpoint: 18.0°C (64°F) [RH = 100%]
Pressure (altimeter): 30.00 inches Hg (1016.0 mb)
Winds: from the SE (140 degrees) at 1 MPH (1 knots; 0.5 m/s)
Visibility: 6 or more miles (10+ km)
Ceiling: at least 12,000 feet AGL
Clouds: sky clear below 12,000 feet AGL
Weather: no significant weather observed at this time

METAR text: RJFF 181700Z AUTO 12002KT 9999 NSC 18/17 Q1016 NOSIG RMK A3002
Conditions at: RJFF (FUKUOKA/ITAZUKE , JP) observed 1700 UTC 18 September 2020
Temperature: 18.0°C (64°F)
Dewpoint: 17.0°C (63°F) [RH = 94%]
Pressure (altimeter): 30.00 inches Hg (1016.0 mb)
Winds: from the ESE (120 degrees) at 2 MPH (2 knots; 1.0 m/s)
Visibility: 6 or more miles (10+ km)
Ceiling: at least 12,000 feet AGL
Clouds: sky clear below 12,000 feet AGL
Weather: no significant weather observed at this time

METAR text: RJFF 181630Z AUTO VRB02KT 9999 NSC 18/18 Q1016 NOSIG RMK A3002
Conditions at: RJFF (FUKUOKA/ITAZUKE , JP) observed 1630 UTC 18 September 2020
Temperature: 18.0°C (64°F)
Dewpoint: 18.0°C (64°F) [RH = 100%]
Pressure (altimeter): 30.00 inches Hg (1016.0 mb)
Winds: variable direction winds at 2 MPH (2 knots; 1.0 m/s)
Visibility: 6 or more miles (10+ km)
Ceiling: at least 12,000 feet AGL
Clouds: sky clear below 12,000 feet AGL
Weather: no significant weather observed at this time

METAR text: RJFF 181600Z AUTO VRB02KT 9999 NSC 19/18 Q1016 NOSIG RMK A3001
Conditions at: RJFF (FUKUOKA/ITAZUKE , JP) observed 1600 UTC 18 September 2020
Temperature: 19.0°C (66°F)
Dewpoint: 18.0°C (64°F) [RH = 94%]
Pressure (altimeter): 30.00 inches Hg (1016.0 mb)
Winds: variable direction winds at 2 MPH (2 knots; 1.0 m/s)
Visibility: 6 or more miles (10+ km)
Ceiling: at least 12,000 feet AGL
Clouds: sky clear below 12,000 feet AGL
Weather: no significant weather observed at this time

METAR text: RJFF 181530Z AUTO 08002KT 9999 NSC 19/18 Q1016 NOSIG RMK A3001
Conditions at: RJFF (FUKUOKA/ITAZUKE , JP) observed 1530 UTC 18 September 2020
Temperature: 19.0°C (66°F)
Dewpoint: 18.0°C (64°F) [RH = 94%]
Pressure (altimeter): 30.00 inches Hg (1016.0 mb)
Winds: from the E (80 degrees) at 2 MPH (2 knots; 1.0 m/s)
Visibility: 6 or more miles (10+ km)
Ceiling: at least 12,000 feet AGL
Clouds: sky clear below 12,000 feet AGL
Weather: no significant weather observed at this time

METAR text: RJFF 181500Z AUTO VRB02KT 9999 NSC 19/18 Q1016 NOSIG RMK A3001
Conditions at: RJFF (FUKUOKA/ITAZUKE , JP) observed 1500 UTC 18 September 2020
Temperature: 19.0°C (66°F)
Dewpoint: 18.0°C (64°F) [RH = 94%]
Pressure (altimeter): 30.00 inches Hg (1016.0 mb)
Winds: variable direction winds at 2 MPH (2 knots; 1.0 m/s)
Visibility: 6 or more miles (10+ km)
Ceiling: at least 12,000 feet AGL
Clouds: sky clear below 12,000 feet AGL
Weather: no significant weather observed at this time

Forecast for: RJFF (FUKUOKA/ITAZUKE , JP)
Text: TAF RJFF 192309Z 2000/2106 33013KT 9999 FEW030
Forecast period: 0000 to 1200 UTC 20 September 2020
Forecast type: FROM: standard forecast or significant change
Winds: from the NNW (330 degrees) at 15 MPH (13 knots; 6.7 m/s)
Visibility: 6 or more miles (10+ km)
Ceiling: at least 12,000 feet AGL
Clouds: few clouds at 3000 feet AGL
Weather: no significant weather forecast for this period
Text: BECMG 2012/2015 12003KT
Forecast period: 1200 to 2100 UTC 20 September 2020
Forecast type: BECOMING: Conditions expected to become as follows by 1500 UTC 20 September 2020
Winds: from the ESE (120 degrees) at 3 MPH (3 knots; 1.5 m/s)
Visibility: 6 or more miles (10+ km)
Ceiling: at least 12,000 feet AGL
Clouds: few clouds at 3000 feet AGL
Weather: no significant weather forecast for this period
Text: BECMG 2021/2100 36010KT
Forecast period: 2100 UTC 20 September 2020 to 0600 UTC 21 September 2020
Forecast type: BECOMING: Conditions expected to become as follows by 0000 UTC 21 September 2020
Winds: from the N (360 degrees) at 12 MPH (10 knots; 5.1 m/s)
Visibility: 6 or more miles (10+ km)
Ceiling: at least 12,000 feet AGL
Clouds: few clouds at 3000 feet AGL
Weather: no significant weather forecast for this period